sensor_id;sensor_type;location;lat;lon;timestamp;pressure;altitude;pressure_sealevel;temperature;humidity
65276;BME280;51875;49.994;14.052;2022-11-18T00:00:22;96774.25;;;7.58;100.00
65276;BME280;51875;49.994;14.052;2022-11-18T00:01:48;96773.06;;;7.65;100.00
65276;BME280;51875;49.994;14.052;2022-11-18T00:03:03;96767.19;;;7.81;100.00
65276;BME280;51875;49.994;14.052;2022-11-18T00:04:19;96759.25;;;7.84;100.00
65276;BME280;51875;49.994;14.052;2022-11-18T00:05:34;96757.56;;;7.62;100.00
65276;BME280;51875;49.994;14.052;2022-11-18T00:06:50;96750.28;;;7.08;100.00
65276;BME280;51875;49.994;14.052;2022-11-18T00:08:06;96744.63;;;6.76;100.00
65276;BME280;51875;49.994;14.052;2022-11-18T00:09:21;96740.81;;;6.62;100.00
65276;BME280;51875;49.994;14.052;2022-11-18T00:10:37;96727.22;;;6.56;100.00
65276;BME280;51875;49.994;14.052;2022-11-18T00:11:53;96729.66;;;6.81;100.00
65276;BME280;51875;49.994;14.052;2022-11-18T00:13:28;96724.84;;;6.94;100.00
65276;BME280;51875;49.994;14.052;2022-11-18T00:15:02;96740.53;;;6.91;100.00
65276;BME280;51875;49.994;14.052;2022-11-18T00:16:17;96747.25;;;6.97;100.00
65276;BME280;51875;49.994;14.052;2022-11-18T00:17:33;96746.25;;;7.21;100.00
65276;BME280;51875;49.994;14.052;2022-11-18T00:18:48;96740.84;;;7.26;100.00
65276;BME280;51875;49.994;14.052;2022-11-18T00:20:04;96745.91;;;7.29;100.00
65276;BME280;51875;49.994;14.052;2022-11-18T00:21:20;96757.38;;;7.46;100.00
65276;BME280;51875;49.994;14.052;2022-11-18T00:22:36;96755.75;;;7.43;100.00
65276;BME280;51875;49.994;14.052;2022-11-18T00:23:51;96755.97;;;7.39;100.00
65276;BME280;51875;49.994;14.052;2022-11-18T00:25:07;96753.72;;;7.71;100.00
65276;BME280;51875;49.994;14.052;2022-11-18T00:26:23;96746.56;;;7.76;100.00
65276;BME280;51875;49.994;14.052;2022-11-18T00:27:38;96740.63;;;7.72;100.00
65276;BME280;51875;49.994;14.052;2022-11-18T00:28:54;96737.22;;;7.10;100.00
65276;BME280;51875;49.994;14.052;2022-11-18T00:30:10;96720.63;;;6.90;100.00
65276;BME280;51875;49.994;14.052;2022-11-18T00:31:26;96723.28;;;7.11;100.00
65276;BME280;51875;49.994;14.052;2022-11-18T00:32:41;96735.19;;;7.37;100.00
65276;BME280;51875;49.994;14.052;2022-11-18T00:33:57;96732.47;;;7.19;100.00
65276;BME280;51875;49.994;14.052;2022-11-18T00:35:13;96743.06;;;7.35;100.00
65276;BME280;51875;49.994;14.052;2022-11-18T00:36:29;96737.09;;;7.33;100.00
65276;BME280;51875;49.994;14.052;2022-11-18T00:37:44;96743.78;;;7.60;100.00
65276;BME280;51875;49.994;14.052;2022-11-18T00:39:00;96737.16;;;7.72;100.00
65276;BME280;51875;49.994;14.052;2022-11-18T00:40:16;96735.69;;;7.66;100.00
65276;BME280;51875;49.994;14.052;2022-11-18T00:41:32;96737.59;;;7.82;100.00
65276;BME280;51875;49.994;14.052;2022-11-18T00:43:06;96732.09;;;7.89;100.00
65276;BME280;51875;49.994;14.052;2022-11-18T00:44:22;96730.50;;;7.85;100.00
65276;BME280;51875;49.994;14.052;2022-11-18T00:45:37;96735.09;;;7.80;100.00
65276;BME280;51875;49.994;14.052;2022-11-18T00:46:53;96738.91;;;7.92;100.00
65276;BME280;51875;49.994;14.052;2022-11-18T00:48:09;96741.50;;;7.92;100.00
65276;BME280;51875;49.994;14.052;2022-11-18T00:49:24;96746.00;;;7.88;100.00
65276;BME280;51875;49.994;14.052;2022-11-18T00:50:40;96742.06;;;7.99;100.00
65276;BME280;51875;49.994;14.052;2022-11-18T00:51:56;96745.16;;;7.88;100.00
65276;BME280;51875;49.994;14.052;2022-11-18T00:53:11;96740.94;;;7.85;100.00
65276;BME280;51875;49.994;14.052;2022-11-18T00:54:27;96749.22;;;7.54;100.00
65276;BME280;51875;49.994;14.052;2022-11-18T00:55:42;96740.00;;;7.26;100.00
65276;BME280;51875;49.994;14.052;2022-11-18T00:56:59;96746.91;;;7.47;100.00
65276;BME280;51875;49.994;14.052;2022-11-18T00:58:14;96750.13;;;7.73;100.00
65276;BME280;51875;49.994;14.052;2022-11-18T00:59:30;96746.22;;;7.84;100.00
65276;BME280;51875;49.994;14.052;2022-11-18T01:00:50;96743.63;;;7.84;100.00
65276;BME280;51875;49.994;14.052;2022-11-18T01:02:06;96752.00;;;7.90;100.00
65276;BME280;51875;49.994;14.052;2022-11-18T01:03:22;96742.28;;;7.94;100.00
65276;BME280;51875;49.994;14.052;2022-11-18T01:04:39;96747.38;;;7.97;100.00
65276;BME280;51875;49.994;14.052;2022-11-18T01:05:55;96745.31;;;7.85;100.00
65276;BME280;51875;49.994;14.052;2022-11-18T01:07:11;96753.50;;;7.96;100.00
65276;BME280;51875;49.994;14.052;2022-11-18T01:08:26;96743.19;;;7.93;100.00
65276;BME280;51875;49.994;14.052;2022-11-18T01:09:42;96745.16;;;7.88;100.00
65276;BME280;51875;49.994;14.052;2022-11-18T01:10:57;96743.47;;;7.87;100.00
65276;BME280;51875;49.994;14.052;2022-11-18T01:12:34;96747.28;;;7.99;100.00
65276;BME280;51875;49.994;14.052;2022-11-18T01:14:08;96745.84;;;7.72;100.00
65276;BME280;51875;49.994;14.052;2022-11-18T01:15:24;96744.94;;;7.53;100.00
65276;BME280;51875;49.994;14.052;2022-11-18T01:16:39;96744.94;;;7.73;100.00
65276;BME280;51875;49.994;14.052;2022-11-18T01:17:55;96746.22;;;7.84;100.00
65276;BME280;51875;49.994;14.052;2022-11-18T01:19:11;96738.25;;;7.87;100.00
65276;BME280;51875;49.994;14.052;2022-11-18T01:20:26;96736.44;;;7.89;100.00
65276;BME280;51875;49.994;14.052;2022-11-18T01:21:42;96737.50;;;7.85;100.00
65276;BME280;51875;49.994;14.052;2022-11-18T01:22:57;96735.72;;;7.85;100.00
65276;BME280;51875;49.994;14.052;2022-11-18T01:24:13;96733.41;;;7.58;100.00
65276;BME280;51875;49.994;14.052;2022-11-18T01:25:29;96726.31;;;7.62;100.00
65276;BME280;51875;49.994;14.052;2022-11-18T01:26:45;96726.06;;;7.47;100.00
65276;BME280;51875;49.994;14.052;2022-11-18T01:28:01;96721.16;;;7.41;100.00
65276;BME280;51875;49.994;14.052;2022-11-18T01:29:16;96720.88;;;7.47;100.00
65276;BME280;51875;49.994;14.052;2022-11-18T01:30:33;96717.22;;;7.31;100.00
65276;BME280;51875;49.994;14.052;2022-11-18T01:31:49;96709.56;;;7.28;100.00
65276;BME280;51875;49.994;14.052;2022-11-18T01:33:05;96710.06;;;7.57;100.00
65276;BME280;51875;49.994;14.052;2022-11-18T01:34:21;96707.38;;;7.58;100.00
65276;BME280;51875;49.994;14.052;2022-11-18T01:35:39;96709.00;;;7.61;100.00
65276;BME280;51875;49.994;14.052;2022-11-18T01:36:55;96713.09;;;7.67;100.00
65276;BME280;51875;49.994;14.052;2022-11-18T01:38:14;96711.03;;;7.54;100.00
65276;BME280;51875;49.994;14.052;2022-11-18T01:39:30;96709.47;;;7.50;100.00
65276;BME280;51875;49.994;14.052;2022-11-18T01:40:45;96701.19;;;7.40;100.00
65276;BME280;51875;49.994;14.052;2022-11-18T01:42:01;96703.94;;;7.37;100.00
65276;BME280;51875;49.994;14.052;2022-11-18T01:43:19;96705.38;;;7.44;100.00
65276;BME280;51875;49.994;14.052;2022-11-18T01:45:16;96704.56;;;7.63;100.00
65276;BME280;51875;49.994;14.052;2022-11-18T01:46:31;96692.16;;;7.49;100.00
65276;BME280;51875;49.994;14.052;2022-11-18T01:47:51;96695.88;;;7.43;100.00
65276;BME280;51875;49.994;14.052;2022-11-18T01:49:12;96692.94;;;7.30;100.00
65276;BME280;51875;49.994;14.052;2022-11-18T01:50:29;96694.78;;;7.07;100.00
65276;BME280;51875;49.994;14.052;2022-11-18T01:51:48;96683.78;;;7.01;100.00
65276;BME280;51875;49.994;14.052;2022-11-18T01:53:13;96685.53;;;7.00;100.00
65276;BME280;51875;49.994;14.052;2022-11-18T01:54:37;96675.78;;;6.85;100.00
65276;BME280;51875;49.994;14.052;2022-11-18T01:55:57;96674.59;;;6.71;100.00
65276;BME280;51875;49.994;14.052;2022-11-18T01:57:15;96677.25;;;6.70;100.00
65276;BME280;51875;49.994;14.052;2022-11-18T01:58:37;96673.44;;;6.78;100.00
65276;BME280;51875;49.994;14.052;2022-11-18T01:59:56;96680.00;;;6.87;100.00
65276;BME280;51875;49.994;14.052;2022-11-18T02:01:13;96685.72;;;6.96;100.00
65276;BME280;51875;49.994;14.052;2022-11-18T02:02:32;96688.47;;;6.92;100.00
65276;BME280;51875;49.994;14.052;2022-11-18T02:03:49;96688.38;;;6.73;100.00
65276;BME280;51875;49.994;14.052;2022-11-18T02:05:07;96694.44;;;6.74;100.00
65276;BME280;51875;49.994;14.052;2022-11-18T02:06:25;96688.72;;;6.86;100.00
65276;BME280;51875;49.994;14.052;2022-11-18T02:07:42;96695.41;;;6.71;100.00
65276;BME280;51875;49.994;14.052;2022-11-18T02:08:58;96692.00;;;6.69;100.00
65276;BME280;51875;49.994;14.052;2022-11-18T02:10:20;96695.63;;;6.87;100.00
65276;BME280;51875;49.994;14.052;2022-11-18T02:11:36;96694.63;;;6.90;100.00
65276;BME280;51875;49.994;14.052;2022-11-18T02:13:08;96692.03;;;6.90;100.00
65276;BME280;51875;49.994;14.052;2022-11-18T02:14:29;96688.81;;;6.62;100.00
65276;BME280;51875;49.994;14.052;2022-11-18T02:16:14;96688.03;;;6.38;100.00
65276;BME280;51875;49.994;14.052;2022-11-18T02:17:47;96684.53;;;6.39;100.00
65276;BME280;51875;49.994;14.052;2022-11-18T02:21:11;96690.50;;;6.19;100.00
65276;BME280;51875;49.994;14.052;2022-11-18T02:23:03;96699.69;;;6.28;100.00
65276;BME280;51875;49.994;14.052;2022-11-18T02:29:03;96690.34;;;6.24;100.00
65276;BME280;51875;49.994;14.052;2022-11-18T02:30:21;96687.78;;;6.22;100.00
65276;BME280;51875;49.994;14.052;2022-11-18T02:31:49;96693.72;;;6.26;100.00
65276;BME280;51875;49.994;14.052;2022-11-18T02:33:10;96689.28;;;6.05;100.00
65276;BME280;51875;49.994;14.052;2022-11-18T02:34:47;96694.06;;;6.16;100.00
65276;BME280;51875;49.994;14.052;2022-11-18T02:38:02;96690.81;;;6.11;100.00
65276;BME280;51875;49.994;14.052;2022-11-18T02:40:06;96684.84;;;6.09;100.00
65276;BME280;51875;49.994;14.052;2022-11-18T02:41:07;96694.16;;;6.15;100.00
65276;BME280;51875;49.994;14.052;2022-11-18T02:42:25;96690.00;;;5.85;100.00
65276;BME280;51875;49.994;14.052;2022-11-18T02:43:51;96693.41;;;6.11;100.00
65276;BME280;51875;49.994;14.052;2022-11-18T02:45:13;96695.81;;;5.92;100.00
65276;BME280;51875;49.994;14.052;2022-11-18T02:46:32;96694.75;;;5.98;100.00
65276;BME280;51875;49.994;14.052;2022-11-18T02:47:49;96693.44;;;5.86;100.00
65276;BME280;51875;49.994;14.052;2022-11-18T02:49:10;96694.97;;;5.91;100.00
65276;BME280;51875;49.994;14.052;2022-11-18T02:50:27;96690.13;;;5.82;100.00
65276;BME280;51875;49.994;14.052;2022-11-18T02:51:44;96693.63;;;5.81;100.00
65276;BME280;51875;49.994;14.052;2022-11-18T02:53:03;96693.91;;;5.73;100.00
65276;BME280;51875;49.994;14.052;2022-11-18T02:54:21;96692.16;;;5.74;100.00
65276;BME280;51875;49.994;14.052;2022-11-18T02:55:38;96689.50;;;5.75;100.00
65276;BME280;51875;49.994;14.052;2022-11-18T02:56:55;96687.63;;;5.79;100.00
65276;BME280;51875;49.994;14.052;2022-11-18T02:58:14;96686.34;;;5.91;100.00
65276;BME280;51875;49.994;14.052;2022-11-18T02:59:31;96685.94;;;5.78;100.00
65276;BME280;51875;49.994;14.052;2022-11-18T03:00:58;96690.13;;;5.82;100.00
65276;BME280;51875;49.994;14.052;2022-11-18T03:02:18;96696.44;;;5.75;100.00
65276;BME280;51875;49.994;14.052;2022-11-18T03:03:35;96697.59;;;5.68;100.00
65276;BME280;51875;49.994;14.052;2022-11-18T03:04:54;96693.56;;;5.83;100.00
65276;BME280;51875;49.994;14.052;2022-11-18T03:07:55;96691.19;;;5.76;100.00
65276;BME280;51875;49.994;14.052;2022-11-18T03:10:35;96689.09;;;5.62;100.00
65276;BME280;51875;49.994;14.052;2022-11-18T03:12:09;96690.88;;;5.62;100.00
65276;BME280;51875;49.994;14.052;2022-11-18T03:13:32;96697.03;;;5.58;100.00
65276;BME280;51875;49.994;14.052;2022-11-18T03:16:32;96691.53;;;5.67;100.00
65276;BME280;51875;49.994;14.052;2022-11-18T03:19:50;96693.72;;;5.54;100.00
65276;BME280;51875;49.994;14.052;2022-11-18T03:21:40;96693.34;;;5.65;100.00
65276;BME280;51875;49.994;14.052;2022-11-18T03:23:21;96695.78;;;5.70;100.00
65276;BME280;51875;49.994;14.052;2022-11-18T03:24:43;96684.69;;;5.64;100.00
65276;BME280;51875;49.994;14.052;2022-11-18T03:26:21;96686.91;;;5.51;100.00
65276;BME280;51875;49.994;14.052;2022-11-18T03:27:55;96678.59;;;5.65;100.00
65276;BME280;51875;49.994;14.052;2022-11-18T03:29:16;96679.66;;;5.84;100.00
65276;BME280;51875;49.994;14.052;2022-11-18T03:30:35;96678.22;;;5.76;100.00
65276;BME280;51875;49.994;14.052;2022-11-18T03:32:02;96674.56;;;5.82;100.00
65276;BME280;51875;49.994;14.052;2022-11-18T03:33:23;96672.78;;;5.83;100.00
65276;BME280;51875;49.994;14.052;2022-11-18T03:34:47;96671.34;;;5.75;100.00
65276;BME280;51875;49.994;14.052;2022-11-18T03:36:05;96672.34;;;5.47;100.00
65276;BME280;51875;49.994;14.052;2022-11-18T03:37:23;96676.47;;;5.53;100.00
65276;BME280;51875;49.994;14.052;2022-11-18T03:38:44;96673.28;;;5.45;100.00
65276;BME280;51875;49.994;14.052;2022-11-18T03:40:11;96668.41;;;5.61;100.00
65276;BME280;51875;49.994;14.052;2022-11-18T03:41:30;96680.97;;;5.72;100.00
65276;BME280;51875;49.994;14.052;2022-11-18T03:42:50;96676.81;;;5.68;100.00
65276;BME280;51875;49.994;14.052;2022-11-18T03:44:14;96686.91;;;5.51;100.00
65276;BME280;51875;49.994;14.052;2022-11-18T03:45:34;96685.72;;;5.60;100.00
65276;BME280;51875;49.994;14.052;2022-11-18T03:47:34;96686.75;;;5.56;100.00
65276;BME280;51875;49.994;14.052;2022-11-18T03:48:52;96690.72;;;5.41;100.00
65276;BME280;51875;49.994;14.052;2022-11-18T03:50:19;96688.97;;;5.42;100.00
65276;BME280;51875;49.994;14.052;2022-11-18T03:51:43;96685.75;;;5.35;100.00
65276;BME280;51875;49.994;14.052;2022-11-18T03:53:02;96691.09;;;5.30;100.00
65276;BME280;51875;49.994;14.052;2022-11-18T03:54:23;96690.44;;;5.25;100.00
65276;BME280;51875;49.994;14.052;2022-11-18T03:55:40;96689.44;;;5.28;100.00
65276;BME280;51875;49.994;14.052;2022-11-18T03:57:02;96692.22;;;5.48;100.00
65276;BME280;51875;49.994;14.052;2022-11-18T03:58:28;96694.31;;;5.37;100.00
65276;BME280;51875;49.994;14.052;2022-11-18T04:00:09;96683.50;;;5.49;100.00
65276;BME280;51875;49.994;14.052;2022-11-18T04:01:46;96695.28;;;5.60;100.00
65276;BME280;51875;49.994;14.052;2022-11-18T04:03:03;96685.78;;;5.59;100.00
65276;BME280;51875;49.994;14.052;2022-11-18T04:04:19;96689.38;;;5.55;100.00
65276;BME280;51875;49.994;14.052;2022-11-18T04:05:39;96682.25;;;5.36;100.00
65276;BME280;51875;49.994;14.052;2022-11-18T04:07:10;96682.72;;;5.47;100.00
65276;BME280;51875;49.994;14.052;2022-11-18T04:08:35;96684.34;;;5.26;100.00
65276;BME280;51875;49.994;14.052;2022-11-18T04:09:56;96680.81;;;5.53;100.00
65276;BME280;51875;49.994;14.052;2022-11-18T04:11:23;96688.75;;;5.48;100.00
65276;BME280;51875;49.994;14.052;2022-11-18T04:13:06;96686.09;;;5.49;100.00
65276;BME280;51875;49.994;14.052;2022-11-18T04:14:23;96685.50;;;5.67;100.00
65276;BME280;51875;49.994;14.052;2022-11-18T04:15:40;96682.84;;;5.68;100.00
65276;BME280;51875;49.994;14.052;2022-11-18T04:16:57;96681.31;;;5.62;100.00
65276;BME280;51875;49.994;14.052;2022-11-18T04:18:12;96685.75;;;5.83;100.00
65276;BME280;51875;49.994;14.052;2022-11-18T04:19:28;96684.84;;;5.84;100.00
65276;BME280;51875;49.994;14.052;2022-11-18T04:20:44;96684.38;;;5.74;100.00
65276;BME280;51875;49.994;14.052;2022-11-18T04:21:59;96688.09;;;5.67;100.00
65276;BME280;51875;49.994;14.052;2022-11-18T04:23:15;96682.63;;;5.74;100.00
65276;BME280;51875;49.994;14.052;2022-11-18T04:24:30;96690.38;;;5.98;100.00
65276;BME280;51875;49.994;14.052;2022-11-18T04:25:46;96693.56;;;6.06;100.00
65276;BME280;51875;49.994;14.052;2022-11-18T04:27:03;96696.13;;;6.08;100.00
65276;BME280;51875;49.994;14.052;2022-11-18T04:28:18;96697.06;;;5.82;100.00
65276;BME280;51875;49.994;14.052;2022-11-18T04:29:34;96704.28;;;5.97;100.00
65276;BME280;51875;49.994;14.052;2022-11-18T04:30:50;96705.25;;;5.94;100.00
65276;BME280;51875;49.994;14.052;2022-11-18T04:32:05;96705.53;;;5.87;100.00
65276;BME280;51875;49.994;14.052;2022-11-18T04:33:21;96709.47;;;5.97;100.00
65276;BME280;51875;49.994;14.052;2022-11-18T04:34:37;96713.75;;;5.98;100.00
65276;BME280;51875;49.994;14.052;2022-11-18T04:35:52;96714.72;;;6.19;100.00
65276;BME280;51875;49.994;14.052;2022-11-18T04:37:08;96711.75;;;6.30;100.00
65276;BME280;51875;49.994;14.052;2022-11-18T04:38:23;96709.63;;;6.18;100.00
65276;BME280;51875;49.994;14.052;2022-11-18T04:39:39;96710.16;;;6.26;100.00
65276;BME280;51875;49.994;14.052;2022-11-18T04:40:55;96715.25;;;6.29;100.00
65276;BME280;51875;49.994;14.052;2022-11-18T04:42:10;96709.66;;;6.16;100.00
65276;BME280;51875;49.994;14.052;2022-11-18T04:43:26;96716.63;;;6.38;100.00
65276;BME280;51875;49.994;14.052;2022-11-18T04:44:41;96717.72;;;6.32;100.00
65276;BME280;51875;49.994;14.052;2022-11-18T04:45:57;96713.63;;;6.49;100.00
65276;BME280;51875;49.994;14.052;2022-11-18T04:47:12;96713.84;;;5.97;100.00
65276;BME280;51875;49.994;14.052;2022-11-18T04:48:28;96712.66;;;6.05;100.00
65276;BME280;51875;49.994;14.052;2022-11-18T04:49:43;96719.81;;;5.75;100.00
65276;BME280;51875;49.994;14.052;2022-11-18T04:51:05;96715.66;;;5.94;100.00
65276;BME280;51875;49.994;14.052;2022-11-18T04:52:21;96724.75;;;6.06;100.00
65276;BME280;51875;49.994;14.052;2022-11-18T04:53:36;96723.19;;;6.02;100.00
65276;BME280;51875;49.994;14.052;2022-11-18T04:54:52;96720.59;;;6.02;100.00
65276;BME280;51875;49.994;14.052;2022-11-18T04:56:08;96722.28;;;6.03;100.00
65276;BME280;51875;49.994;14.052;2022-11-18T04:57:23;96724.16;;;5.98;100.00
65276;BME280;51875;49.994;14.052;2022-11-18T04:58:39;96722.91;;;6.10;100.00
65276;BME280;51875;49.994;14.052;2022-11-18T04:59:54;96727.84;;;6.16;100.00
65276;BME280;51875;49.994;14.052;2022-11-18T05:01:10;96722.78;;;6.13;100.00
65276;BME280;51875;49.994;14.052;2022-11-18T05:02:26;96722.72;;;6.15;100.00
65276;BME280;51875;49.994;14.052;2022-11-18T05:03:41;96715.84;;;6.36;100.00
65276;BME280;51875;49.994;14.052;2022-11-18T05:04:57;96712.41;;;6.35;100.00
65276;BME280;51875;49.994;14.052;2022-11-18T05:06:13;96712.09;;;6.43;100.00
65276;BME280;51875;49.994;14.052;2022-11-18T05:07:28;96715.94;;;6.55;100.00
65276;BME280;51875;49.994;14.052;2022-11-18T05:08:44;96710.88;;;6.52;100.00
65276;BME280;51875;49.994;14.052;2022-11-18T05:09:59;96706.28;;;6.59;100.00
65276;BME280;51875;49.994;14.052;2022-11-18T05:11:15;96716.56;;;6.62;100.00
65276;BME280;51875;49.994;14.052;2022-11-18T05:12:49;96711.44;;;6.60;100.00
65276;BME280;51875;49.994;14.052;2022-11-18T05:14:05;96713.31;;;6.57;100.00
65276;BME280;51875;49.994;14.052;2022-11-18T05:15:21;96710.56;;;6.60;100.00
65276;BME280;51875;49.994;14.052;2022-11-18T05:16:38;96712.69;;;6.50;100.00
65276;BME280;51875;49.994;14.052;2022-11-18T05:17:54;96712.22;;;6.62;100.00
65276;BME280;51875;49.994;14.052;2022-11-18T05:19:09;96707.75;;;6.44;100.00
65276;BME280;51875;49.994;14.052;2022-11-18T05:20:25;96710.06;;;6.29;100.00
65276;BME280;51875;49.994;14.052;2022-11-18T05:21:41;96706.84;;;6.45;100.00
65276;BME280;51875;49.994;14.052;2022-11-18T05:22:56;96712.75;;;6.48;100.00
65276;BME280;51875;49.994;14.052;2022-11-18T05:24:12;96714.66;;;6.45;100.00
65276;BME280;51875;49.994;14.052;2022-11-18T05:25:28;96721.34;;;6.50;100.00
65276;BME280;51875;49.994;14.052;2022-11-18T05:26:43;96717.59;;;6.35;100.00
65276;BME280;51875;49.994;14.052;2022-11-18T05:27:59;96722.72;;;6.15;100.00
65276;BME280;51875;49.994;14.052;2022-11-18T05:29:16;96712.91;;;6.21;100.00
65276;BME280;51875;49.994;14.052;2022-11-18T05:30:32;96724.53;;;6.35;100.00
65276;BME280;51875;49.994;14.052;2022-11-18T05:31:48;96717.25;;;6.45;100.00
65276;BME280;51875;49.994;14.052;2022-11-18T05:33:03;96725.03;;;6.22;100.00
65276;BME280;51875;49.994;14.052;2022-11-18T05:34:19;96719.38;;;6.11;100.00
65276;BME280;51875;49.994;14.052;2022-11-18T05:35:35;96722.19;;;6.05;100.00
65276;BME280;51875;49.994;14.052;2022-11-18T05:36:51;96723.31;;;5.74;100.00
65276;BME280;51875;49.994;14.052;2022-11-18T05:38:07;96723.31;;;5.74;100.00
65276;BME280;51875;49.994;14.052;2022-11-18T05:39:22;96725.16;;;5.70;100.00
65276;BME280;51875;49.994;14.052;2022-11-18T05:40:38;96721.47;;;5.77;100.00
65276;BME280;51875;49.994;14.052;2022-11-18T05:41:56;96721.38;;;5.79;100.00
65276;BME280;51875;49.994;14.052;2022-11-18T05:43:31;96723.44;;;5.71;100.00
65276;BME280;51875;49.994;14.052;2022-11-18T05:44:47;96721.63;;;5.73;100.00
65276;BME280;51875;49.994;14.052;2022-11-18T05:46:03;96718.84;;;5.77;100.00
65276;BME280;51875;49.994;14.052;2022-11-18T05:47:19;96719.03;;;5.73;100.00
65276;BME280;51875;49.994;14.052;2022-11-18T05:48:34;96717.09;;;5.54;100.00
65276;BME280;51875;49.994;14.052;2022-11-18T05:49:50;96715.34;;;5.78;100.00
65276;BME280;51875;49.994;14.052;2022-11-18T05:51:05;96713.78;;;5.74;100.00
65276;BME280;51875;49.994;14.052;2022-11-18T05:52:21;96718.97;;;5.74;100.00
65276;BME280;51875;49.994;14.052;2022-11-18T05:53:37;96712.63;;;5.82;100.00
65276;BME280;51875;49.994;14.052;2022-11-18T05:54:52;96712.75;;;5.78;100.00
65276;BME280;51875;49.994;14.052;2022-11-18T05:56:39;96721.28;;;5.82;100.00
65276;BME280;51875;49.994;14.052;2022-11-18T05:57:55;96714.53;;;6.00;100.00
65276;BME280;51875;49.994;14.052;2022-11-18T05:59:11;96718.47;;;6.12;100.00
65276;BME280;51875;49.994;14.052;2022-11-18T06:00:28;96713.56;;;6.04;100.00
65276;BME280;51875;49.994;14.052;2022-11-18T06:01:47;96720.03;;;5.92;100.00
65276;BME280;51875;49.994;14.052;2022-11-18T06:03:08;96727.03;;;5.90;100.00
65276;BME280;51875;49.994;14.052;2022-11-18T06:04:43;96723.06;;;6.05;100.00
65276;BME280;51875;49.994;14.052;2022-11-18T06:06:02;96730.25;;;5.97;100.00
65276;BME280;51875;49.994;14.052;2022-11-18T06:07:22;96728.00;;;6.12;100.00
65276;BME280;51875;49.994;14.052;2022-11-18T06:08:44;96729.97;;;6.29;100.00
65276;BME280;51875;49.994;14.052;2022-11-18T06:10:01;96720.19;;;6.35;100.00
65276;BME280;51875;49.994;14.052;2022-11-18T06:11:17;96717.16;;;6.46;100.00
65276;BME280;51875;49.994;14.052;2022-11-18T06:12:37;96732.88;;;6.43;100.00
65276;BME280;51875;49.994;14.052;2022-11-18T06:13:59;96734.41;;;6.27;100.00
65276;BME280;51875;49.994;14.052;2022-11-18T06:15:25;96733.94;;;6.39;100.00
65276;BME280;51875;49.994;14.052;2022-11-18T06:16:47;96731.78;;;6.27;100.00
65276;BME280;51875;49.994;14.052;2022-11-18T06:18:11;96734.09;;;6.34;100.00
65276;BME280;51875;49.994;14.052;2022-11-18T06:19:31;96733.63;;;6.25;100.00
65276;BME280;51875;49.994;14.052;2022-11-18T06:20:47;96736.44;;;6.41;100.00
65276;BME280;51875;49.994;14.052;2022-11-18T06:22:04;96731.44;;;6.36;100.00
65276;BME280;51875;49.994;14.052;2022-11-18T06:23:20;96736.75;;;6.33;100.00
65276;BME280;51875;49.994;14.052;2022-11-18T06:24:36;96733.16;;;6.13;100.00
65276;BME280;51875;49.994;14.052;2022-11-18T06:25:52;96733.22;;;6.12;100.00
65276;BME280;51875;49.994;14.052;2022-11-18T06:27:08;96737.09;;;6.01;100.00
65276;BME280;51875;49.994;14.052;2022-11-18T06:28:24;96734.22;;;5.84;100.00
65276;BME280;51875;49.994;14.052;2022-11-18T06:29:41;96734.56;;;5.74;100.00
65276;BME280;51875;49.994;14.052;2022-11-18T06:30:56;96737.09;;;5.76;100.00
65276;BME280;51875;49.994;14.052;2022-11-18T06:32:13;96734.66;;;5.71;100.00
65276;BME280;51875;49.994;14.052;2022-11-18T06:33:28;96728.00;;;5.64;100.00
65276;BME280;51875;49.994;14.052;2022-11-18T06:34:44;96730.09;;;5.54;100.00
65276;BME280;51875;49.994;14.052;2022-11-18T06:36:00;96733.69;;;5.74;100.00
65276;BME280;51875;49.994;14.052;2022-11-18T06:37:17;96726.22;;;5.90;100.00
65276;BME280;51875;49.994;14.052;2022-11-18T06:38:34;96730.06;;;6.03;100.00
65276;BME280;51875;49.994;14.052;2022-11-18T06:39:50;96732.09;;;5.93;100.00
65276;BME280;51875;49.994;14.052;2022-11-18T06:41:06;96733.41;;;5.82;100.00
65276;BME280;51875;49.994;14.052;2022-11-18T06:42:21;96733.75;;;5.72;100.00
65276;BME280;51875;49.994;14.052;2022-11-18T06:43:55;96727.72;;;5.96;100.00
65276;BME280;51875;49.994;14.052;2022-11-18T06:45:11;96738.84;;;5.75;100.00
65276;BME280;51875;49.994;14.052;2022-11-18T06:46:27;96736.28;;;5.74;100.00
65276;BME280;51875;49.994;14.052;2022-11-18T06:48:01;96736.44;;;5.94;100.00
65276;BME280;51875;49.994;14.052;2022-11-18T06:49:18;96739.47;;;6.06;100.00
65276;BME280;51875;49.994;14.052;2022-11-18T06:50:33;96745.25;;;6.14;100.00
65276;BME280;51875;49.994;14.052;2022-11-18T06:51:49;96742.28;;;6.01;100.00
65276;BME280;51875;49.994;14.052;2022-11-18T06:53:04;96746.91;;;5.91;100.00
65276;BME280;51875;49.994;14.052;2022-11-18T06:54:20;96749.88;;;5.57;100.00
65276;BME280;51875;49.994;14.052;2022-11-18T06:55:36;96744.94;;;5.74;100.00
65276;BME280;51875;49.994;14.052;2022-11-18T06:56:52;96749.47;;;5.93;100.00
65276;BME280;51875;49.994;14.052;2022-11-18T06:58:07;96744.31;;;5.91;100.00
65276;BME280;51875;49.994;14.052;2022-11-18T06:59:23;96749.34;;;5.96;100.00
65276;BME280;51875;49.994;14.052;2022-11-18T07:00:39;96742.16;;;6.04;100.00
65276;BME280;51875;49.994;14.052;2022-11-18T07:01:54;96745.09;;;5.93;100.00
65276;BME280;51875;49.994;14.052;2022-11-18T07:03:09;96749.03;;;6.29;100.00
65276;BME280;51875;49.994;14.052;2022-11-18T07:04:25;96750.19;;;6.44;100.00
65276;BME280;51875;49.994;14.052;2022-11-18T07:05:41;96750.56;;;6.57;100.00
65276;BME280;51875;49.994;14.052;2022-11-18T07:06:56;96743.91;;;6.50;100.00
65276;BME280;51875;49.994;14.052;2022-11-18T07:08:12;96745.75;;;6.46;100.00
65276;BME280;51875;49.994;14.052;2022-11-18T07:09:27;96749.09;;;6.50;100.00